Time;durP1;ratioP1;P1;durP2;ratioP2;P2;SDS_P1;SDS_P2;PMS_P1;PMS_P2;Temp;Humidity;BMP_temperature;BMP_pressure;BME280_temperature;BME280_humidity;BME280_pressure;Samples;Min_cycle;Max_cycle;Signal;HPM_P1;HPM_P2
2022/08/05 00:01:52;;;;;;;2.20;1.90;;;;;;;23.10;62.84;98476.00;5157176;27;20043;-81
2022/08/05 00:04:18;;;;;;;3.72;2.40;;;;;;;23.08;63.13;98462.41;5154034;27;20053;-81
2022/08/05 00:06:45;;;;;;;3.72;2.33;;;;;;;23.16;62.79;98483.19;5155159;27;20397;-81
2022/08/05 00:09:13;;;;;;;3.47;2.05;;;;;;;23.04;63.16;98474.34;5152821;27;20050;-81
2022/08/05 00:11:40;;;;;;;3.45;1.98;;;;;;;22.91;62.69;98453.59;5145763;27;20050;-81
2022/08/05 00:14:07;;;;;;;3.15;2.20;;;;;;;23.09;62.53;98466.00;5150251;27;20489;-81
2022/08/05 00:16:33;;;;;;;3.10;2.30;;;;;;;22.98;63.06;98468.81;5154194;27;20042;-81
2022/08/05 00:19:00;;;;;;;3.92;2.10;;;;;;;22.87;63.04;98469.13;5151851;27;20043;-80
2022/08/05 00:21:26;;;;;;;2.53;1.90;;;;;;;22.78;63.64;98461.41;5153945;27;20047;-80
2022/08/05 00:23:53;;;;;;;3.55;2.13;;;;;;;22.80;63.19;98461.13;5152680;27;20039;-81
2022/08/05 00:26:21;;;;;;;5.90;3.15;;;;;;;22.91;62.28;98460.00;5151821;27;20045;-80
2022/08/05 00:28:48;;;;;;;8.82;2.45;;;;;;;22.92;63.24;98474.66;5152512;27;20042;-80
2022/08/05 00:31:14;;;;;;;5.25;1.90;;;;;;;22.72;63.96;98440.38;5153562;27;20081;-80
2022/08/05 00:33:41;;;;;;;2.17;1.95;;;;;;;22.87;65.29;98481.06;5151305;27;20102;-80
2022/08/05 00:36:07;;;;;;;2.70;1.95;;;;;;;22.68;65.82;98480.00;5151208;27;20412;-80
2022/08/05 00:38:34;;;;;;;2.97;2.10;;;;;;;22.86;64.38;98489.66;5153210;27;20408;-80
2022/08/05 00:41:01;;;;;;;4.68;2.13;;;;;;;22.70;65.19;98486.94;5149402;27;20042;-80
2022/08/05 00:43:30;;;;;;;2.85;2.53;;;;;;;22.80;65.23;98495.19;5150839;27;20046;-80
2022/08/05 00:45:56;;;;;;;4.13;2.22;;;;;;;22.80;65.32;98497.16;5151034;27;20043;-81
2022/08/05 00:48:23;;;;;;;3.05;2.35;;;;;;;22.73;65.59;98497.47;5152703;27;20069;-80
2022/08/05 00:50:51;;;;;;;4.63;2.55;;;;;;;22.42;66.62;98519.66;5151487;27;20526;-81
2022/08/05 00:53:21;;;;;;;4.40;2.50;;;;;;;22.48;66.30;98503.88;5150009;27;20051;-81
2022/08/05 00:55:48;;;;;;;5.00;2.33;;;;;;;22.25;67.58;98519.94;5150879;27;20064;-80
2022/08/05 00:58:16;;;;;;;3.80;2.30;;;;;;;22.13;68.09;98544.28;5153253;27;20058;-80
2022/08/05 01:00:45;;;;;;;6.93;2.47;;;;;;;22.14;68.47;98523.78;5148766;27;20055;-80
2022/08/05 01:03:12;;;;;;;3.80;2.75;;;;;;;22.00;70.12;98529.03;5148714;27;20038;-80
2022/08/05 01:05:39;;;;;;;5.80;2.90;;;;;;;21.80;71.22;98540.94;5146440;27;20051;-80
2022/08/05 01:08:06;;;;;;;4.43;2.50;;;;;;;21.82;71.82;98555.31;5152641;27;20069;-80
2022/08/05 01:10:38;;;;;;;4.78;2.30;;;;;;;21.87;71.27;98533.16;5152776;27;20059;-81
2022/08/05 01:13:14;;;;;;;6.60;2.90;;;;;;;21.89;71.43;98555.06;5150618;27;20082;-81
2022/08/05 01:15:46;;;;;;;5.47;2.60;;;;;;;21.61;73.44;98550.84;5150717;27;20461;-80
2022/08/05 01:18:22;;;;;;;5.35;2.40;;;;;;;21.59;74.08;98551.13;5150682;27;20046;-80
2022/08/05 01:20:57;;;;;;;6.75;2.58;;;;;;;21.56;74.65;98557.19;5150906;27;20050;-81
2022/08/05 01:23:35;;;;;;;2.70;2.25;;;;;;;21.58;74.03;98567.97;5151159;27;20056;-80
2022/08/05 01:26:26;;;;;;;6.40;2.70;;;;;;;21.59;73.07;98558.56;5150722;27;20042;-80
2022/08/05 01:28:58;;;;;;;7.03;2.40;;;;;;;21.74;71.99;98567.75;5146505;27;20074;-80
2022/08/05 01:31:32;;;;;;;2.55;2.10;;;;;;;21.81;70.47;98566.66;5148399;27;20478;-80
2022/08/05 01:34:02;;;;;;;5.03;2.40;;;;;;;21.94;68.64;98574.41;5149518;27;20043;-80
2022/08/05 01:36:34;;;;;;;5.25;2.38;;;;;;;21.86;67.94;98541.75;5151199;27;20508;-80
2022/08/05 01:39:02;;;;;;;4.82;2.75;;;;;;;22.16;67.42;98568.66;5151181;27;20043;-80
2022/08/05 01:41:32;;;;;;;7.80;2.55;;;;;;;22.23;66.33;98563.66;5149732;27;20235;-80
2022/08/05 01:44:01;;;;;;;11.50;2.35;;;;;;;22.20;65.78;98550.34;5150755;27;20043;-80
2022/08/05 01:46:30;;;;;;;3.70;2.20;;;;;;;22.37;64.80;98571.44;5151353;27;20058;-80
2022/08/05 01:49:00;;;;;;;7.83;2.50;;;;;;;22.59;63.63;98582.25;5142137;27;20046;-80
2022/08/05 01:51:27;;;;;;;;;;;;;;;22.61;64.06;98594.72;5151127;27;20043;-80
2022/08/05 01:53:56;;;;;;;5.65;2.30;;;;;;;22.60;63.48;98572.81;5148117;27;20388;-80
2022/08/05 01:56:26;;;;;;;6.05;2.30;;;;;;;22.76;63.44;98606.88;5150982;27;20052;-80
2022/08/05 01:58:56;;;;;;;6.20;2.13;;;;;;;22.67;63.55;98589.16;5151143;27;20227;-80
2022/08/05 02:01:26;;;;;;;9.00;2.50;;;;;;;22.57;63.77;98570.63;5150315;27;20057;-80
2022/08/05 02:03:55;;;;;;;8.20;2.45;;;;;;;22.74;63.33;98598.03;5148945;27;20030;-80
2022/08/05 02:06:22;;;;;;;10.60;2.40;;;;;;;22.77;63.91;98580.84;5152428;27;20910;-80
2022/08/05 02:08:49;;;;;;;9.07;2.13;;;;;;;22.82;64.13;98569.72;5150382;27;20059;-80
2022/08/05 02:11:17;;;;;;;4.35;2.00;;;;;;;22.85;63.93;98562.81;5150852;27;20049;-80
2022/08/05 02:13:51;;;;;;;5.78;2.10;;;;;;;22.99;63.82;98583.31;5147735;27;20043;-80
2022/08/05 02:16:22;;;;;;;9.70;2.45;;;;;;;22.86;63.96;98562.53;5147518;27;20387;-80
2022/08/05 02:18:54;;;;;;;4.63;2.15;;;;;;;22.90;63.88;98569.19;5151974;27;20057;-80
2022/08/05 02:21:26;;;;;;;8.38;2.33;;;;;;;22.95;64.36;98577.47;5154006;27;20478;-80
2022/08/05 02:23:59;;;;;;;11.85;2.67;;;;;;;22.97;64.44;98575.25;5146871;27;20038;-80
2022/08/05 02:26:33;;;;;;;12.40;2.30;;;;;;;22.96;64.05;98556.16;5139455;27;20051;-80
2022/08/05 02:29:01;;;;;;;9.45;2.45;;;;;;;22.95;64.26;98563.59;5151347;27;20053;-80
2022/08/05 02:31:31;;;;;;;5.40;1.92;;;;;;;22.79;64.39;98548.13;5153341;27;20481;-80
2022/08/05 02:34:04;;;;;;;7.38;2.25;;;;;;;22.95;64.29;98574.69;5146574;27;20050;-81
2022/08/05 02:36:34;;;;;;;8.63;1.95;;;;;;;22.89;64.65;98577.78;5153259;27;20478;-81
2022/08/05 02:39:02;;;;;;;9.35;2.25;;;;;;;22.80;65.59;98585.81;5148082;27;20038;-81
2022/08/05 02:41:31;;;;;;;6.45;2.10;;;;;;;22.62;66.21;98574.19;5153682;27;20073;-80
2022/08/05 02:44:00;;;;;;;10.45;2.50;;;;;;;22.62;66.43;98585.28;5145148;27;20042;-81
2022/08/05 02:46:28;;;;;;;4.15;2.00;;;;;;;22.67;67.20;98594.69;5150189;27;20053;-80
2022/08/05 02:48:56;;;;;;;7.00;3.33;;;;;;;22.44;68.31;98583.91;5151784;27;20051;-81
2022/08/05 02:51:25;;;;;;;5.53;2.05;;;;;;;22.24;69.36;98570.03;5148899;27;20038;-80
2022/08/05 02:53:52;;;;;;;9.07;2.63;;;;;;;22.12;70.33;98586.91;5150955;27;20125;-80
2022/08/05 02:56:20;;;;;;;9.75;2.15;;;;;;;22.19;70.58;98586.63;5149863;27;20074;-81
2022/08/05 02:58:50;;;;;;;6.55;2.03;;;;;;;22.12;71.62;98578.59;5148657;27;20127;-80
2022/08/05 03:01:20;;;;;;;5.13;2.80;;;;;;;21.80;72.35;98570.50;5150937;27;20046;-80
2022/08/05 03:03:50;;;;;;;13.00;2.63;;;;;;;21.74;72.02;98556.69;5149775;27;20043;-80
2022/08/05 03:06:17;;;;;;;5.47;3.03;;;;;;;21.87;72.07;98584.91;5154481;27;20045;-80
2022/08/05 03:08:46;;;;;;;7.25;2.70;;;;;;;21.83;72.17;98587.41;5154553;27;20431;-81
2022/08/05 03:11:20;;;;;;;6.15;1.90;;;;;;;21.96;71.26;98605.41;5155436;27;20053;-80
2022/08/05 03:13:47;;;;;;;7.47;2.40;;;;;;;21.87;71.49;98599.56;5153050;27;20046;-81
2022/08/05 03:16:13;;;;;;;4.65;1.88;;;;;;;21.64;71.57;98606.44;5153940;27;20053;-81
2022/08/05 03:18:40;;;;;;;8.82;2.80;;;;;;;21.68;72.75;98645.44;5154120;27;20038;-80
2022/08/05 03:21:07;;;;;;;6.20;2.45;;;;;;;21.78;72.42;98612.28;5153903;27;20046;-80
2022/08/05 03:23:34;;;;;;;3.33;2.00;;;;;;;21.66;73.09;98625.53;5149515;27;20043;-81
2022/08/05 03:26:04;;;;;;;6.55;2.45;;;;;;;21.74;73.62;98642.44;5148679;27;20039;-80
2022/08/05 03:28:31;;;;;;;4.30;2.13;;;;;;;21.62;75.10;98640.97;5153635;27;20043;-80
2022/08/05 03:30:59;;;;;;;3.88;2.45;;;;;;;21.59;75.32;98631.31;5155138;27;20051;-81
2022/08/05 03:33:27;;;;;;;10.73;2.53;;;;;;;21.29;75.47;98607.09;5153492;27;20046;-80
2022/08/05 03:35:55;;;;;;;3.65;2.30;;;;;;;21.39;74.48;98607.13;5154992;27;20043;-80
2022/08/05 03:38:23;;;;;;;13.23;2.67;;;;;;;21.61;75.79;98640.16;5151115;27;20164;-80
2022/08/05 03:40:51;;;;;;;9.80;2.70;;;;;;;21.53;76.20;98635.97;5152884;27;20399;-81
2022/08/05 03:43:23;;;;;;;4.63;2.22;;;;;;;21.27;77.92;98612.03;5152986;27;20058;-80
2022/08/05 03:45:50;;;;;;;3.22;1.98;;;;;;;21.17;78.51;98626.66;5153102;27;20134;-80
2022/08/05 03:48:17;;;;;;;4.97;2.10;;;;;;;21.36;78.39;98635.31;5153499;27;20096;-80
2022/08/05 03:50:52;;;;;;;10.15;2.88;;;;;;;21.33;77.75;98622.03;5153982;27;20070;-81
2022/08/05 03:53:31;;;;;;;7.15;2.60;;;;;;;21.42;77.91;98641.69;5150159;27;20478;-80
2022/08/05 03:56:03;;;;;;;6.57;2.78;;;;;;;21.39;77.74;98635.63;5147840;27;20047;-81
2022/08/05 03:58:35;;;;;;;5.78;2.72;;;;;;;21.30;78.23;98617.88;5152704;27;20039;-80
2022/08/05 04:01:04;;;;;;;5.07;2.90;;;;;;;21.29;78.74;98612.63;5153407;27;20043;-80
2022/08/05 04:03:36;;;;;;;4.37;2.40;;;;;;;21.16;78.66;98602.88;5153044;27;20397;-80
2022/08/05 04:06:03;;;;;;;5.85;2.35;;;;;;;21.13;79.17;98620.00;5151772;27;20312;-80
2022/08/05 04:08:31;;;;;;;4.57;2.60;;;;;;;20.98;78.69;98599.44;5153015;27;20542;-80
2022/08/05 04:10:59;;;;;;;4.78;2.75;;;;;;;21.08;79.37;98592.34;5154181;27;20485;-80
2022/08/05 04:13:26;;;;;;;5.72;2.50;;;;;;;21.22;79.64;98618.38;5152580;27;20047;-81
2022/08/05 04:15:54;;;;;;;3.60;2.38;;;;;;;21.08;78.87;98593.16;5152748;27;20039;-80
2022/08/05 04:18:23;;;;;;;6.55;2.30;;;;;;;21.25;78.94;98619.78;5152027;27;20054;-81
2022/08/05 04:20:53;;;;;;;10.18;2.70;;;;;;;21.11;79.16;98597.31;5145409;27;20046;-80
2022/08/05 04:23:21;;;;;;;4.35;2.28;;;;;;;21.31;78.62;98616.75;5151576;27;20074;-79
2022/08/05 04:25:48;;;;;;;4.45;2.03;;;;;;;21.22;79.57;98637.72;5143459;27;20074;-80
2022/08/05 04:28:15;;;;;;;3.97;2.50;;;;;;;21.16;80.09;98655.38;5155006;27;20050;-80
2022/08/05 04:30:41;;;;;;;9.77;2.40;;;;;;;21.27;79.11;98672.84;5148180;27;22086;-81
2022/08/05 04:33:10;;;;;;;5.32;2.33;;;;;;;21.31;78.10;98685.06;5146013;27;20053;-81
2022/08/05 04:35:36;;;;;;;4.15;2.58;;;;;;;21.53;77.65;98720.91;5153989;27;20051;-81
2022/08/05 04:38:03;;;;;;;10.65;2.35;;;;;;;21.47;77.54;98738.50;5152560;27;20052;-81
2022/08/05 04:40:33;;;;;;;4.32;2.50;;;;;;;21.72;76.79;98747.00;5152092;27;20095;-82
2022/08/05 04:43:00;;;;;;;6.95;3.03;;;;;;;21.60;78.48;98726.16;5151444;27;20050;-81
2022/08/05 04:45:26;;;;;;;6.13;2.90;;;;;;;21.34;79.42;98729.56;5151308;27;20046;-81
2022/08/05 04:47:53;;;;;;;7.55;3.55;;;;;;;21.61;78.58;98761.03;5153338;27;20047;-81
2022/08/05 04:50:21;;;;;;;6.60;2.47;;;;;;;21.59;77.79;98735.56;5151746;27;20401;-81
2022/08/05 04:52:48;;;;;;;10.73;2.60;;;;;;;21.73;78.74;98783.78;5152732;27;20038;-81
2022/08/05 04:55:14;;;;;;;8.18;2.72;;;;;;;21.77;78.54;98792.38;5152110;27;20046;-81
2022/08/05 04:57:44;;;;;;;4.05;2.58;;;;;;;21.81;77.83;98802.63;5152459;27;20042;-81
2022/08/05 05:00:12;;;;;;;3.58;2.50;;;;;;;21.90;77.85;98797.44;5149754;27;20422;-81
2022/08/05 05:02:38;;;;;;;5.38;2.85;;;;;;;21.79;78.02;98785.47;5144096;27;20050;-81
2022/08/05 05:05:06;;;;;;;7.82;2.67;;;;;;;21.87;78.79;98797.97;5152589;27;20062;-82
2022/08/05 05:07:34;;;;;;;8.18;2.58;;;;;;;22.06;77.71;98820.50;5152544;27;20050;-81
2022/08/05 05:10:03;;;;;;;7.03;2.90;;;;;;;22.06;77.94;98815.78;5153290;27;20050;-81
2022/08/05 05:12:29;;;;;;;7.82;2.90;;;;;;;22.00;78.30;98811.34;5150420;27;20038;-81
2022/08/05 05:14:56;;;;;;;4.20;2.60;;;;;;;21.96;78.95;98812.97;5150331;27;20062;-81
2022/08/05 05:17:23;;;;;;;10.70;2.90;;;;;;;21.98;79.54;98835.69;5152933;27;20060;-81
2022/08/05 05:19:49;;;;;;;4.50;2.70;;;;;;;22.08;78.40;98857.84;5149714;27;20053;-81
2022/08/05 05:22:16;;;;;;;4.75;2.80;;;;;;;22.30;78.27;98880.97;5152907;27;20077;-81
2022/08/05 05:24:44;;;;;;;4.88;2.92;;;;;;;22.49;76.24;98873.06;5152703;27;20065;-82
2022/08/05 05:27:10;;;;;;;9.82;2.60;;;;;;;22.53;75.49;98861.16;5151510;27;20110;-81
2022/08/05 05:29:37;;;;;;;4.15;2.88;;;;;;;22.61;75.47;98862.56;5147677;27;20046;-81
2022/08/05 05:32:04;;;;;;;9.35;3.00;;;;;;;23.09;73.05;98865.19;5148060;27;20058;-81
2022/08/05 05:34:31;;;;;;;9.90;2.90;;;;;;;23.56;70.94;98866.09;5150830;27;20072;-82
2022/08/05 05:36:57;;;;;;;7.28;3.45;;;;;;;23.96;69.23;98856.91;5151255;27;20381;-82
2022/08/05 05:39:24;;;;;;;12.77;3.10;;;;;;;24.21;67.78;98860.75;5151047;27;20055;-82
2022/08/05 05:41:52;;;;;;;6.13;2.85;;;;;;;24.47;65.87;98852.34;5147825;27;20445;-82
2022/08/05 05:44:18;;;;;;;6.00;2.70;;;;;;;24.73;64.19;98865.03;5151902;27;20481;-82
2022/08/05 05:46:45;;;;;;;8.52;2.70;;;;;;;24.96;63.65;98865.47;5154154;27;20053;-82
2022/08/05 05:49:11;;;;;;;8.48;2.90;;;;;;;25.00;61.67;98871.28;5146691;27;20138;-83
2022/08/05 05:51:38;;;;;;;9.05;2.60;;;;;;;25.23;61.43;98880.84;5154523;27;20047;-82
2022/08/05 05:54:06;;;;;;;8.73;2.97;;;;;;;25.44;59.97;98881.56;5152589;27;20463;-83
2022/08/05 05:56:32;;;;;;;7.50;3.00;;;;;;;25.54;58.69;98875.91;5152731;27;20045;-80
2022/08/05 05:59:01;;;;;;;15.82;2.72;;;;;;;25.50;58.95;98874.00;5153720;27;20505;-80
2022/08/05 06:01:28;;;;;;;14.20;4.38;;;;;;;25.73;57.17;98867.69;5150133;27;20054;-82
2022/08/05 06:03:54;;;;;;;7.00;2.80;;;;;;;26.12;56.69;98886.28;5149617;27;20473;-81
2022/08/05 06:06:21;;;;;;;4.65;2.40;;;;;;;26.32;54.96;98892.75;5151434;27;20042;-81
2022/08/05 06:08:47;;;;;;;6.28;2.55;;;;;;;26.41;55.36;98867.88;5151756;27;20043;-81
2022/08/05 06:11:14;;;;;;;2.80;1.92;;;;;;;26.53;53.71;98871.06;5151046;27;20393;-81
2022/08/05 06:13:40;;;;;;;7.18;2.63;;;;;;;26.73;53.49;98908.19;5147602;27;20054;-82
2022/08/05 06:16:08;;;;;;;7.78;2.50;;;;;;;26.59;53.32;98908.88;5154223;27;20061;-82
2022/08/05 06:18:36;;;;;;;3.95;2.50;;;;;;;26.71;53.45;98902.06;5153409;27;20078;-81
2022/08/05 06:21:03;;;;;;;6.30;2.67;;;;;;;26.81;53.55;98907.53;5160223;27;20508;-81
2022/08/05 06:23:30;;;;;;;15.02;2.53;;;;;;;26.86;52.54;98899.09;5151852;27;20059;-81
2022/08/05 06:25:57;;;;;;;8.73;2.03;;;;;;;26.81;52.79;98888.00;5151693;27;20057;-81
2022/08/05 06:28:23;;;;;;;4.57;2.15;;;;;;;27.01;52.32;98893.31;5152422;27;20061;-81
2022/08/05 06:30:50;;;;;;;6.35;2.72;;;;;;;26.93;52.18;98876.41;5151508;27;20039;-80
2022/08/05 06:33:18;;;;;;;5.32;2.30;;;;;;;27.26;51.86;98859.75;5149391;27;20065;-81
2022/08/05 06:35:45;;;;;;;4.47;2.40;;;;;;;27.44;50.75;98860.91;5150247;27;20042;-81
2022/08/05 06:38:11;;;;;;;5.18;2.22;;;;;;;27.52;50.33;98877.78;5150277;27;20045;-81
2022/08/05 06:40:38;;;;;;;5.43;2.28;;;;;;;27.76;49.52;98870.41;5161692;27;20054;-81
2022/08/05 06:43:04;;;;;;;3.67;1.83;;;;;;;27.72;49.51;98887.78;5148907;27;20042;-81
2022/08/05 06:45:31;;;;;;;7.32;2.00;;;;;;;27.43;49.88;98874.03;5156005;27;20057;-81
2022/08/05 06:47:57;;;;;;;4.80;2.13;;;;;;;27.93;49.26;98876.25;5155690;27;20066;-81
2022/08/05 06:50:26;;;;;;;2.88;1.90;;;;;;;28.22;47.87;98887.19;5156275;27;20046;-81
2022/08/05 06:52:53;;;;;;;6.70;2.10;;;;;;;28.38;47.81;98892.50;5156343;27;20038;-81
2022/08/05 06:55:19;;;;;;;2.70;1.85;;;;;;;28.17;48.34;98904.06;5159467;27;20054;-81
2022/08/05 06:57:46;;;;;;;6.20;2.40;;;;;;;28.30;47.74;98907.16;5158390;27;20670;-82
2022/08/05 07:00:13;;;;;;;6.82;2.95;;;;;;;28.51;46.39;98904.81;5154292;27;20043;-82
2022/08/05 07:02:47;;;;;;;11.00;2.30;;;;;;;28.47;46.63;98893.44;5157521;27;20050;-81
2022/08/05 07:05:15;;;;;;;4.85;2.20;;;;;;;28.55;46.36;98884.31;5157676;27;20039;-81
2022/08/05 07:07:43;;;;;;;8.90;1.85;;;;;;;28.75;46.05;98887.84;5154668;27;20091;-82
2022/08/05 07:10:10;;;;;;;2.67;1.77;;;;;;;28.34;46.15;98885.88;5155545;27;20138;-82
2022/08/05 07:18:06;;;;;;;10.32;2.13;;;;;;;27.59;47.75;98912.84;5148756;27;20462;-82
2022/08/05 07:20:32;;;;;;;5.82;1.90;;;;;;;27.25;48.90;98919.47;5152159;27;20047;-81
2022/08/05 07:23:00;;;;;;;3.92;1.88;;;;;;;27.06;49.15;98919.47;5152536;27;20405;-81
2022/08/05 07:25:27;;;;;;;3.50;2.10;;;;;;;27.03;49.42;98921.72;5154095;27;20240;-81
2022/08/05 07:27:55;;;;;;;3.90;1.92;;;;;;;27.18;49.20;98928.22;5152458;27;20046;-81
2022/08/05 07:30:21;;;;;;;5.55;2.10;;;;;;;27.24;47.80;98923.41;5150577;27;20470;-81
2022/08/05 07:32:48;;;;;;;5.82;1.80;;;;;;;26.99;47.30;98912.31;5149916;27;20050;-81
2022/08/05 07:35:15;;;;;;;1.67;1.40;;;;;;;26.88;47.55;98933.09;5151694;27;20054;-80
2022/08/05 07:37:42;;;;;;;3.50;1.50;;;;;;;27.07;46.22;98926.69;5152095;27;20062;-81
2022/08/05 07:40:11;;;;;;;2.72;1.50;;;;;;;27.61;45.55;98944.09;5152893;27;20081;-81
2022/08/05 07:42:37;;;;;;;3.23;1.80;;;;;;;27.50;44.89;98930.28;5151732;27;20061;-81
2022/08/05 07:45:05;;;;;;;2.53;1.60;;;;;;;27.31;45.34;98938.66;5153062;27;20408;-81
2022/08/05 07:47:32;;;;;;;7.88;1.88;;;;;;;27.28;44.91;98927.25;5152053;27;20065;-81
2022/08/05 07:49:59;;;;;;;3.00;1.60;;;;;;;27.73;43.87;98930.47;5151532;27;20046;-81
2022/08/05 07:52:25;;;;;;;2.25;1.40;;;;;;;28.22;43.21;98945.88;5153165;27;20043;-82
2022/08/05 07:54:52;;;;;;;3.95;1.75;;;;;;;28.29;42.76;98920.34;5152847;27;20046;-81
2022/08/05 07:57:20;;;;;;;5.10;1.52;;;;;;;28.30;42.20;98935.13;5147127;27;20050;-81
2022/08/05 07:59:46;;;;;;;5.05;1.80;;;;;;;28.42;42.92;98939.09;5147883;27;20053;-82
2022/08/05 08:02:13;;;;;;;3.97;1.63;;;;;;;28.28;43.79;98929.03;5136199;27;20055;-80
2022/08/05 08:04:39;;;;;;;16.98;2.90;;;;;;;28.29;43.06;98948.28;5135521;27;20054;-80
2022/08/05 08:07:06;;;;;;;3.28;1.75;;;;;;;28.43;41.76;98951.09;5135976;27;20109;-84
2022/08/05 08:09:33;;;;;;;3.03;1.27;;;;;;;28.22;42.71;98948.66;5138925;27;20502;-84
2022/08/05 08:11:59;;;;;;;4.55;1.70;;;;;;;27.97;42.99;98930.41;5153527;27;20051;-80
2022/08/05 08:14:27;;;;;;;3.65;1.30;;;;;;;28.05;42.83;98940.88;5152683;27;20047;-81
2022/08/05 08:16:54;;;;;;;3.00;1.70;;;;;;;27.90;43.35;98925.16;5147206;27;20504;-81
2022/08/05 08:19:21;;;;;;;2.20;1.30;;;;;;;28.08;43.83;98943.06;5154058;27;20046;-81
2022/08/05 08:21:47;;;;;;;1.27;1.13;;;;;;;28.41;42.38;98939.41;5149549;27;20051;-81
2022/08/05 08:24:14;;;;;;;2.30;1.50;;;;;;;28.72;41.87;98959.22;5153749;27;20046;-81
2022/08/05 08:26:40;;;;;;;3.55;1.70;;;;;;;28.59;42.06;98946.03;5154087;27;20042;-81
2022/08/05 08:29:07;;;;;;;2.05;1.52;;;;;;;28.62;40.41;98945.44;5154447;27;20502;-82
2022/08/05 08:31:35;;;;;;;4.80;1.67;;;;;;;28.51;40.69;98910.41;5153863;27;20061;-82
2022/08/05 08:34:01;;;;;;;7.63;1.63;;;;;;;28.77;41.05;98925.56;5151068;27;20412;-81
2022/08/05 08:36:28;;;;;;;2.13;1.40;;;;;;;28.85;40.59;98940.78;5150021;27;20505;-81
2022/08/05 08:38:55;;;;;;;1.90;1.40;;;;;;;28.64;41.06;98918.00;5152811;27;20061;-81
2022/08/05 08:41:23;;;;;;;4.35;1.58;;;;;;;28.71;41.32;98910.03;5153058;27;20051;-82
2022/08/05 08:43:52;;;;;;;3.00;1.50;;;;;;;28.90;41.07;98928.66;5155315;27;20038;-82
2022/08/05 08:46:20;;;;;;;3.03;1.83;;;;;;;28.71;41.53;98909.16;5153226;27;20058;-82
2022/08/05 08:48:50;;;;;;;2.90;1.60;;;;;;;28.88;40.94;98908.56;5149244;27;20076;-81
2022/08/05 08:51:18;;;;;;;;;;;;;;;28.89;41.54;98916.63;5152461;27;20061;-81
2022/08/05 08:53:44;;;;;;;1.83;1.40;;;;;;;28.85;40.65;98901.63;5152164;27;19919;-81
2022/08/05 08:56:11;;;;;;;2.00;1.50;;;;;;;28.99;41.20;98914.75;5150629;27;20050;-81
2022/08/05 08:58:38;;;;;;;1.80;1.35;;;;;;;29.25;40.61;98903.84;5152469;27;20544;-82
2022/08/05 09:01:07;;;;;;;3.08;1.70;;;;;;;29.36;40.45;98910.88;5148743;27;20596;-81
2022/08/05 09:03:34;;;;;;;3.47;1.90;;;;;;;29.23;40.33;98898.56;5151259;27;20568;-82
2022/08/05 09:06:02;;;;;;;3.13;1.60;;;;;;;29.28;39.59;98895.66;5153400;27;20039;-82
2022/08/05 09:08:29;;;;;;;3.15;1.50;;;;;;;29.09;40.07;98878.97;5149673;27;20050;-81
2022/08/05 09:10:55;;;;;;;3.70;1.65;;;;;;;29.51;39.87;98880.81;5152524;27;20122;-82
2022/08/05 09:13:22;;;;;;;2.90;1.95;;;;;;;29.42;39.95;98870.41;5152436;27;20506;-80
2022/08/05 09:18:57;;;;;;;7.28;1.50;;;;;;;29.88;38.91;98871.22;5108733;27;20630;-80
2022/08/05 09:21:27;;;;;;;2.13;1.58;;;;;;;30.05;38.41;98875.28;5149985;27;20042;-80
2022/08/05 09:24:04;;;;;;;1.35;1.23;;;;;;;30.38;38.85;98872.13;5148930;27;20043;-79
2022/08/05 09:26:30;;;;;;;5.20;1.70;;;;;;;30.33;37.30;98865.50;5145514;27;20047;-80
2022/08/05 09:29:00;;;;;;;1.55;1.42;;;;;;;30.01;37.51;98842.28;5150186;27;20043;-80
2022/08/05 09:31:27;;;;;;;1.50;1.35;;;;;;;30.53;37.15;98869.75;5151866;27;20108;-80
2022/08/05 09:33:57;;;;;;;1.55;1.40;;;;;;;30.33;37.68;98865.50;5150353;27;20435;-81
2022/08/05 09:36:38;;;;;;;3.83;1.30;;;;;;;30.36;36.99;98855.63;5149602;27;20049;-80
2022/08/05 09:39:07;;;;;;;2.90;1.35;;;;;;;30.56;36.28;98850.63;5151523;27;20042;-80
2022/08/05 09:41:35;;;;;;;1.67;1.20;;;;;;;30.33;36.79;98854.28;5151575;27;20046;-80
2022/08/05 09:44:02;;;;;;;4.82;1.60;;;;;;;30.68;36.60;98845.19;5147179;27;20043;-80
2022/08/05 09:46:30;;;;;;;3.13;1.38;;;;;;;30.72;35.31;98837.78;5151778;27;20145;-81
2022/08/05 09:48:58;;;;;;;3.67;1.40;;;;;;;30.34;35.62;98816.69;5150966;27;20052;-80
2022/08/05 09:51:34;;;;;;;3.65;1.50;;;;;;;30.42;36.28;98829.13;5146680;27;20466;-80
2022/08/05 09:54:03;;;;;;;1.50;1.40;;;;;;;30.66;36.10;98841.91;5149421;27;20034;-80
2022/08/05 09:56:32;;;;;;;1.42;1.33;;;;;;;30.95;35.43;98835.66;5152432;27;20046;-80
2022/08/05 09:59:00;;;;;;;3.10;1.30;;;;;;;30.99;35.25;98833.88;5150313;27;20489;-80
2022/08/05 10:01:28;;;;;;;2.42;1.27;;;;;;;30.81;34.72;98846.22;5151137;27;20073;-80
2022/08/05 10:03:58;;;;;;;2.65;1.40;;;;;;;30.92;34.61;98816.69;5149230;27;20045;-80
2022/08/05 10:06:26;;;;;;;2.72;1.30;;;;;;;31.03;35.30;98823.66;5154189;27;20070;-80
2022/08/05 10:08:55;;;;;;;2.33;1.30;;;;;;;31.17;34.79;98836.72;5150802;27;20498;-81
2022/08/05 10:11:22;;;;;;;2.20;1.40;;;;;;;31.37;34.53;98847.25;5151361;27;20065;-80
2022/08/05 10:13:50;;;;;;;8.32;1.33;;;;;;;31.47;33.38;98825.63;5149372;27;20069;-80
2022/08/05 10:16:32;;;;;;;1.80;1.38;;;;;;;31.37;33.63;98846.44;5151123;27;20047;-80
2022/08/05 10:18:59;;;;;;;2.05;1.35;;;;;;;31.19;33.67;98831.59;5148369;27;20393;-81
2022/08/05 10:21:27;;;;;;;1.85;1.30;;;;;;;31.23;34.28;98843.81;5148402;27;20082;-81
2022/08/05 10:23:55;;;;;;;1.77;1.30;;;;;;;30.95;35.26;98846.88;5147568;27;20072;-81
2022/08/05 10:26:23;;;;;;;1.77;1.40;;;;;;;30.90;34.60;98847.06;5130361;27;20043;-81
2022/08/05 10:28:49;;;;;;;2.65;1.70;;;;;;;30.93;34.77;98831.56;5150877;27;20414;-80
2022/08/05 10:31:17;;;;;;;2.00;1.70;;;;;;;31.08;34.91;98847.94;5149848;27;20053;-80
2022/08/05 10:33:44;;;;;;;2.95;1.48;;;;;;;30.98;35.15;98829.41;5147360;27;20050;-80
2022/08/05 10:36:13;;;;;;;2.00;1.48;;;;;;;30.91;35.50;98843.09;5145788;27;20046;-82
2022/08/05 10:38:44;;;;;;;4.50;1.50;;;;;;;31.50;35.29;98831.41;5145913;27;20046;-81
2022/08/05 10:41:18;;;;;;;2.60;1.30;;;;;;;31.35;34.41;98837.53;5143407;27;20122;-82
2022/08/05 10:43:51;;;;;;;4.97;1.50;;;;;;;31.48;34.64;98825.31;5146924;27;20045;-82
2022/08/05 10:46:20;;;;;;;2.33;1.25;;;;;;;31.51;34.70;98824.63;5149878;27;20046;-81
2022/08/05 10:48:48;;;;;;;3.92;1.60;;;;;;;31.78;33.97;98822.59;5150010;27;20039;-82
2022/08/05 10:51:16;;;;;;;3.58;1.40;;;;;;;31.79;34.13;98804.59;5147407;27;20046;-82
2022/08/05 10:53:45;;;;;;;1.63;1.40;;;;;;;31.85;33.79;98820.09;5150315;27;20049;-82
2022/08/05 10:56:15;;;;;;;3.00;1.85;;;;;;;32.00;33.88;98812.31;5151437;27;20336;-82
2022/08/05 10:59:04;;;;;;;1.73;1.40;;;;;;;32.40;33.70;98820.41;5150750;27;20047;-81
2022/08/05 11:01:34;;;;;;;2.97;1.73;;;;;;;32.28;33.91;98836.03;5149272;27;20267;-82
2022/08/05 11:04:06;;;;;;;6.70;2.60;;;;;;;32.57;33.34;98819.50;5154700;27;20047;-82
2022/08/05 11:06:34;;;;;;;9.45;1.70;;;;;;;32.42;33.38;98824.53;5148873;27;20047;-82
2022/08/05 11:09:22;;;;;;;2.08;1.20;;;;;;;32.08;33.57;98840.38;5150167;27;20117;-82
2022/08/05 11:11:52;;;;;;;3.63;1.65;;;;;;;32.39;32.85;98836.47;5142045;27;20452;-82
2022/08/05 11:14:28;;;;;;;3.40;1.73;;;;;;;32.51;33.58;98832.13;5151231;27;20133;-82
2022/08/05 11:17:36;;;;;;;5.65;1.70;;;;;;;32.49;33.59;98828.81;5149600;27;20125;-82
2022/08/05 11:20:04;;;;;;;2.35;1.50;;;;;;;32.64;32.92;98839.50;5140623;27;20095;-82
2022/08/05 11:22:43;;;;;;;2.00;1.50;;;;;;;32.65;32.88;98827.06;5146786;27;20054;-82
2022/08/05 11:25:29;;;;;;;2.67;1.40;;;;;;;32.78;32.34;98825.19;5153293;27;20049;-82
2022/08/05 11:28:17;;;;;;;4.15;1.70;;;;;;;32.90;32.18;98825.28;5148813;27;20047;-82
2022/08/05 11:31:21;;;;;;;2.75;1.65;;;;;;;33.14;32.12;98841.47;5146112;27;20493;-81
2022/08/05 11:33:57;;;;;;;3.42;1.75;;;;;;;33.43;31.48;98839.75;5146079;27;20066;-81
2022/08/05 11:36:43;;;;;;;1.95;1.40;;;;;;;33.59;31.98;98830.66;5151906;27;20134;-82
2022/08/05 11:39:12;;;;;;;4.55;1.45;;;;;;;33.75;31.49;98830.88;5151483;27;20055;-83
2022/08/05 11:41:40;;;;;;;4.30;1.80;;;;;;;33.57;31.82;98838.66;5136692;27;20447;-82
2022/08/05 11:44:11;;;;;;;4.30;1.70;;;;;;;33.97;30.96;98840.91;5154605;27;20058;-82
2022/08/05 11:46:40;;;;;;;2.05;1.60;;;;;;;33.97;31.32;98819.16;5151847;27;20046;-82
2022/08/05 11:49:12;;;;;;;1.88;1.35;;;;;;;34.10;30.70;98834.13;5151742;27;20049;-82
2022/08/05 11:51:42;;;;;;;2.55;1.35;;;;;;;34.10;32.10;98828.50;5148315;27;20047;-82